KVPZ/VPZ METAR and TAF weather

Enter ICAO airport designator
Station Type Date Time Source
KVPZ METAR 2019/07/18 10:56 UTC NOAA

KVPZ 181056Z AUTO 19004KT 10SM FEW110 24/22 A2992 RMK AO2 SLP124 T02390217


Station Type Date Time Source
KVPZ Decoded METAR 2019/07/18 10:56 UTC NOAA

VALPARAISO PORTER CO MUNI, IN, United States (KVPZ) 41-27N 087-00W 231M
Jul 18, 2019 - 06:56 AM EDT / 2019.07.18 1056 UTC
Wind: from the S (190 degrees) at 5 MPH (4 KT):0
Visibility: 10 mile(s):0
Sky conditions: mostly clear
Temperature: 75.0 F (23.9 C)
Dew Point: 71.1 F (21.7 C)
Relative Humidity: 87%
Pressure (altimeter): 29.92 in. Hg (1013 hPa)
ob: KVPZ 181056Z AUTO 19004KT 10SM FEW110 24/22 A2992 RMK AO2 SLP124 T02390217
cycle: 11

Station Type Date Time Source
KVPZ TAF UTC NOAA

Error!

Example: see airport list